Dominia — ICFW — position and weather

sailwx.info

Track history (hours):
 
Tides and Currents Weather Stations Pressure Air Temp Water Temp Dewpoint Dewpoint Depression Visibility Wind Speed Wind Dir Waves Ship Positions

Dominia

Last reported at 2014-Oct-28 05:33 UTC. Time now 2014-Oct-31 09:15 UTC.
Position N 43°12' E 009°30'.

Length 176 m; draft 10.1 m.

Type: Ship (hazmat cat A). MMSI: 247273400.

Date/timePositionNaut miles runAvg speedWind from/ knotsBaromVisibWave heightAir tempDewpointWater temp
2014-Oct-28 05:33N 43°12' E 009°30'1111.4
2014-Oct-28 04:33N 43°22' E 009°22'1211.7
2014-Oct-28 03:33N 43°32' E 009°14'1211.7
2014-Oct-28 02:33N 43°42' E 009°05'1111.5
2014-Oct-28 01:33N 43°52' E 008°58'1211.6
2014-Oct-28 00:33N 44°03' E 008°53'1212.0
2014-Oct-27 23:33N 44°15' E 008°48'1010.4
2014-Oct-27 22:33N 44°25' E 008°49'1 0.2
2014-Oct-27 19:07N 44°25' E 008°50'0 0.0
2014-Oct-27 11:25N 44°25' E 008°50'0 0.0
2014-Oct-27 07:31N 44°25' E 008°50'0 0.0
2014-Oct-27 03:19N 44°25' E 008°50'0 0.0
2014-Oct-27 02:31N 44°25' E 008°50'0 0.0
2014-Oct-27 01:13N 44°25' E 008°50'0 0.0
2014-Oct-27 00:13N 44°25' E 008°50'0 0.0
2014-Oct-26 23:31N 44°25' E 008°50'0 0.0
2014-Oct-26 22:28N 44°25' E 008°50'0 0.0
2014-Oct-26 20:16N 44°25' E 008°50'0 0.0
2014-Oct-26 19:04N 44°25' E 008°50'0 0.0
2014-Oct-26 15:28N 44°25' E 008°50'0 0.0
2014-Oct-26 11:31N 44°25' E 008°50'0 0.0
2014-Oct-26 07:31N 44°25' E 008°50'0 0.0
2014-Oct-26 04:07N 44°25' E 008°50'0 0.0
2014-Oct-26 03:25N 44°25' E 008°50'0 0.0
2014-Oct-26 02:13N 44°25' E 008°50'0 0.0
2014-Oct-26 01:31N 44°25' E 008°50'0 0.0
2014-Oct-25 23:31N 44°25' E 008°50'0 0.0
2014-Oct-25 19:31N 44°25' E 008°50'0 0.0
2014-Oct-25 17:04N 44°25' E 008°50'0 0.0
2014-Oct-25 15:28N 44°25' E 008°50'0 0.0
2014-Oct-25 11:25N 44°25' E 008°50'0 0.0
2014-Oct-25 03:25N 44°25' E 008°50'0 0.0
2014-Oct-25 02:19N 44°25' E 008°50'0 0.0
2014-Oct-25 01:07N 44°25' E 008°50'0 0.0
2014-Oct-25 00:31N 44°25' E 008°50'0 0.0
2014-Oct-24 23:31N 44°25' E 008°50'0 0.0
2014-Oct-24 19:13N 44°25' E 008°50'0 0.0
2014-Oct-24 18:25N 44°25' E 008°50'0 0.0
2014-Oct-24 17:22N 44°25' E 008°50'0 0.0
2014-Oct-24 16:19N 44°25' E 008°50'0 0.0
2014-Oct-24 15:28N 44°25' E 008°50'0 0.0
2014-Oct-24 14:10N 44°25' E 008°50'0 0.0
2014-Oct-24 13:10N 44°25' E 008°50'0 0.0
2014-Oct-24 12:28N 44°25' E 008°50'0 0.0
2014-Oct-24 11:10N 44°25' E 008°50'0 0.0
2014-Oct-24 09:22N 44°25' E 008°50'0 0.0
2014-Oct-24 08:28N 44°25' E 008°50'0 0.0
2014-Oct-24 07:19N 44°25' E 008°50'0 0.0
2014-Oct-24 06:32N 44°25' E 008°50'4 4.3
2014-Oct-24 05:33N 44°22' E 008°47'8 8.5
2014-Oct-24 04:33N 44°14' E 008°50'1 0.6
2014-Oct-24 03:31N 44°13' E 008°50'1 1.0
2014-Oct-24 02:31N 44°14' E 008°50'1 1.1
2014-Oct-24 01:31N 44°15' E 008°49'1 1.1
2014-Oct-24 00:31N 44°16' E 008°49'1 0.7
2014-Oct-23 23:31N 44°17' E 008°49'1 0.7
2014-Oct-23 22:31N 44°18' E 008°49'0 0.4
2014-Oct-23 21:31N 44°18' E 008°48'3 3.3
2014-Oct-23 20:33N 44°15' E 008°47'7 7.2
2014-Oct-23 19:33N 44°08' E 008°44'0 0.2
2014-Oct-23 18:32N 44°08' E 008°44'1 0.8
2014-Oct-23 17:32N 44°09' E 008°45'1 0.7
2014-Oct-23 16:32N 44°09' E 008°45'1 0.7
2014-Oct-23 15:29N 44°10' E 008°46'1 0.7
2014-Oct-23 14:32N 44°11' E 008°46'1 0.9
2014-Oct-23 13:32N 44°12' E 008°46'1 1.0
2014-Oct-23 12:32N 44°13' E 008°45'1 1.1
2014-Oct-23 11:32N 44°14' E 008°45'1 0.9
2014-Oct-23 10:29N 44°15' E 008°45'1 0.9
2014-Oct-23 09:29N 44°15' E 008°44'1 0.8
2014-Oct-23 08:32N 44°16' E 008°44'5 5.0
2014-Oct-23 07:33N 44°15' E 008°51'7 7.5
2014-Oct-23 06:34N 44°12' E 009°00'1 1.1
2014-Oct-23 05:31N 44°11' E 009°01'1 1.3
2014-Oct-23 04:31N 44°11' E 008°59'1 1.3
2014-Oct-23 03:31N 44°11' E 008°57'1 1.2
2014-Oct-23 02:28N 44°11' E 008°56'1 0.9
2014-Oct-23 01:31N 44°12' E 008°55'1 0.8
2014-Oct-23 00:31N 44°12' E 008°54'1 0.7
2014-Oct-22 23:28N 44°12' E 008°53'1 0.8
2014-Oct-22 22:31N 44°13' E 008°52'1 1.0
2014-Oct-22 21:31N 44°14' E 008°52'1 0.9
2014-Oct-22 20:31N 44°14' E 008°51'1 1.2
2014-Oct-22 19:31N 44°15' E 008°50'1 0.9
2014-Oct-22 18:33N 44°16' E 008°49'6 6.2
2014-Oct-22 17:33N 44°10' E 008°46'6 6.3
2014-Oct-22 16:33N 44°05' E 008°41'1 1.2
2014-Oct-22 15:31N 44°05' E 008°40'2 1.9
2014-Oct-22 14:31N 44°07' E 008°40'2 2.0
2014-Oct-22 13:31N 44°08' E 008°41'2 1.8
2014-Oct-22 12:19N 44°11' E 008°42'1 1.6
2014-Oct-22 11:31N 44°12' E 008°42'1 1.3
2014-Oct-22 10:31N 44°13' E 008°43'2 1.5
2014-Oct-22 09:31N 44°14' E 008°44'2 1.6
2014-Oct-22 08:34N 44°16' E 008°45'6 5.7
2014-Oct-22 07:33N 44°10' E 008°49'8 7.9
2014-Oct-22 06:33N 44°09' E 008°59'4 3.7
2014-Oct-22 05:32N 44°08' E 009°04'2 1.8
2014-Oct-22 04:32N 44°08' E 009°02'2 1.9
2014-Oct-22 03:29N 44°09' E 008°59'2 2.3
2014-Oct-22 02:32N 44°10' E 008°57'2 1.8
2014-Oct-22 01:32N 44°12' E 008°55'1 1.0
2014-Oct-22 00:32N 44°12' E 008°54'1 0.5
2014-Oct-21 23:32N 44°12' E 008°53'0 0.2
2014-Oct-21 22:32N 44°12' E 008°53'5 4.7
2014-Oct-21 21:33N 44°14' E 008°47'2 1.7
2014-Oct-21 20:28N 44°15' E 008°45'1 0.8
2014-Oct-21 19:31N 44°15' E 008°46'1 0.9
2014-Oct-21 18:28N 44°14' E 008°47'1 0.8
2014-Oct-21 17:31N 44°13' E 008°47'1 0.8
2014-Oct-21 16:31N 44°12' E 008°48'1 0.8
2014-Oct-21 15:31N 44°12' E 008°48'1 0.8
2014-Oct-21 14:33N 44°11' E 008°47'7 7.0
2014-Oct-21 13:33N 44°12' E 008°38'2 1.1
2014-Oct-21 11:32N 44°12' E 008°41'1 1.0
2014-Oct-21 10:32N 44°12' E 008°42'1 0.9
2014-Oct-21 09:20N 44°12' E 008°44'1 0.8
2014-Oct-21 08:32N 44°12' E 008°44'1 0.8
2014-Oct-21 07:26N 44°11' E 008°45'3 3.6
2014-Oct-21 06:33N 44°14' E 008°48'10 9.8
2014-Oct-21 05:33N 44°23' E 008°51'0 0.1
2014-Oct-21 04:30N 44°23' E 008°51'0 0.0
2014-Oct-21 03:33N 44°23' E 008°51'0 0.0
2014-Oct-21 02:33N 44°23' E 008°51'0 0.0
2014-Oct-21 01:33N 44°23' E 008°51'0 0.0
2014-Oct-21 00:33N 44°23' E 008°51'0 0.0
2014-Oct-20 23:33N 44°24' E 008°51'0 0.1
2014-Oct-20 22:33N 44°24' E 008°51'0 0.0
2014-Oct-20 21:30N 44°23' E 008°51'0 0.1
2014-Oct-20 20:33N 44°23' E 008°51'0 0.1
2014-Oct-20 19:33N 44°23' E 008°51'0 0.0
2014-Oct-20 18:33N 44°23' E 008°51'0 0.0
2014-Oct-20 17:33N 44°23' E 008°51'0 0.0
2014-Oct-20 16:33N 44°23' E 008°51'0 0.0
2014-Oct-20 15:33N 44°24' E 008°51'0 0.0
2014-Oct-20 14:33N 44°23' E 008°51'0 0.0
2014-Oct-20 13:33N 44°23' E 008°51'0 0.0
2014-Oct-20 12:33N 44°23' E 008°51'0 0.0
2014-Oct-20 11:33N 44°23' E 008°51'0 0.0
2014-Oct-20 10:33N 44°23' E 008°51'0 0.1
2014-Oct-20 09:33N 44°23' E 008°51'0 0.1
2014-Oct-20 08:33N 44°23' E 008°51'0 0.0
2014-Oct-20 07:30N 44°23' E 008°51'0 0.0
2014-Oct-20 06:33N 44°23' E 008°51'0 0.0
2014-Oct-20 05:33N 44°23' E 008°51'0 0.0
2014-Oct-20 04:33N 44°23' E 008°51'0 0.0
2014-Oct-20 03:33N 44°23' E 008°51'0 0.0
2014-Oct-20 02:33N 44°23' E 008°51'0 0.0
2014-Oct-20 01:33N 44°23' E 008°51'0 0.0
2014-Oct-20 00:33N 44°23' E 008°51'0 0.0
2014-Oct-19 23:33N 44°23' E 008°51'0 0.0
2014-Oct-19 22:33N 44°23' E 008°51'0 0.0
2014-Oct-19 21:33N 44°23' E 008°51'0 0.0
2014-Oct-19 20:33N 44°23' E 008°51'0 0.0
2014-Oct-19 19:33N 44°23' E 008°51'0 0.0
2014-Oct-19 18:24N 44°23' E 008°51'0 0.1
2014-Oct-19 17:33N 44°23' E 008°51'0 0.0
2014-Oct-19 16:30N 44°23' E 008°51'0 0.0
2014-Oct-19 15:33N 44°23' E 008°51'0 0.0
2014-Oct-19 14:30N 44°23' E 008°51'0 0.0
2014-Oct-19 13:27N 44°23' E 008°51'0 0.0
2014-Oct-19 12:33N 44°23' E 008°51'0 0.0
2014-Oct-19 11:30N 44°23' E 008°51'0 0.1
2014-Oct-19 10:27N 44°23' E 008°51'0 0.1
2014-Oct-19 09:33N 44°23' E 008°51'0 0.1
2014-Oct-19 08:33N 44°23' E 008°51'0 0.0
2014-Oct-19 07:33N 44°23' E 008°51'0 0.1
2014-Oct-19 06:33N 44°23' E 008°51'4 4.4
2014-Oct-19 05:33N 44°19' E 008°52'1010.1
2014-Oct-19 04:33N 44°09' E 008°56'0 0.1
2014-Oct-19 03:33N 44°09' E 008°56'0 0.2
2014-Oct-19 02:33N 44°09' E 008°56'0 0.2
2014-Oct-19 01:33N 44°09' E 008°57'0 0.1
2014-Oct-19 00:33N 44°09' E 008°57'0 0.1
2014-Oct-18 23:33N 44°09' E 008°57'0 0.2
2014-Oct-18 22:33N 44°09' E 008°57'0 0.2
2014-Oct-18 21:33N 44°09' E 008°56'0 0.3
2014-Oct-18 20:30N 44°09' E 008°56'0 0.4
2014-Oct-18 19:33N 44°09' E 008°56'0 0.3
2014-Oct-18 18:30N 44°08' E 008°56'2 2.1
2014-Oct-18 17:33N 44°10' E 008°54'10 9.9
2014-Oct-18 16:33N 44°19' E 008°50'1010.4
2014-Oct-18 15:33N 44°11' E 008°41'1312.7
2014-Oct-18 14:33N 44°01' E 008°30'1312.6
2014-Oct-18 13:33N 43°51' E 008°19'1312.3
2014-Oct-18 12:30N 43°42' E 008°06'1212.3
2014-Oct-18 11:32N 43°35' E 007°53'2912.6
2014-Oct-18 09:14N 43°17' E 007°21'912.5
2014-Oct-18 08:33N 43°12' E 007°12'1212.4
2014-Oct-18 07:33N 43°04' E 006°59'1212.3
2014-Oct-18 06:33N 42°57' E 006°45'  
Track history (hours):
 
Tides and Currents Weather Stations Pressure Air Temp Water Temp Dewpoint Dewpoint Depression Visibility Wind Speed Wind Dir Waves Ship Positions

Dominia

Last reported at 2014-Oct-28 05:33 UTC. Time now 2014-Oct-31 09:15 UTC.
Position N 43°12' E 009°30'.

Length 176 m; draft 10.1 m.

Type: Ship (hazmat cat A). MMSI: 247273400.

Date/timePositionNaut miles runAvg speedWind from/ knotsBaromVisibWave heightAir tempDewpointWater temp
2014-Oct-28 05:33N 43°12' E 009°30'1111.4
2014-Oct-28 04:33N 43°22' E 009°22'1211.7
2014-Oct-28 03:33N 43°32' E 009°14'1211.7
2014-Oct-28 02:33N 43°42' E 009°05'1111.5
2014-Oct-28 01:33N 43°52' E 008°58'1211.6
2014-Oct-28 00:33N 44°03' E 008°53'1212.0
2014-Oct-27 23:33N 44°15' E 008°48'1010.4
2014-Oct-27 22:33N 44°25' E 008°49'1 0.2
2014-Oct-27 19:07N 44°25' E 008°50'0 0.0
2014-Oct-27 11:25N 44°25' E 008°50'0 0.0
2014-Oct-27 07:31N 44°25' E 008°50'0 0.0
2014-Oct-27 03:19N 44°25' E 008°50'0 0.0
2014-Oct-27 02:31N 44°25' E 008°50'0 0.0
2014-Oct-27 01:13N 44°25' E 008°50'0 0.0
2014-Oct-27 00:13N 44°25' E 008°50'0 0.0
2014-Oct-26 23:31N 44°25' E 008°50'0 0.0
2014-Oct-26 22:28N 44°25' E 008°50'0 0.0
2014-Oct-26 20:16N 44°25' E 008°50'0 0.0
2014-Oct-26 19:04N 44°25' E 008°50'0 0.0
2014-Oct-26 15:28N 44°25' E 008°50'0 0.0
2014-Oct-26 11:31N 44°25' E 008°50'0 0.0
2014-Oct-26 07:31N 44°25' E 008°50'0 0.0
2014-Oct-26 04:07N 44°25' E 008°50'0 0.0
2014-Oct-26 03:25N 44°25' E 008°50'0 0.0
2014-Oct-26 02:13N 44°25' E 008°50'0 0.0
2014-Oct-26 01:31N 44°25' E 008°50'0 0.0
2014-Oct-25 23:31N 44°25' E 008°50'0 0.0
2014-Oct-25 19:31N 44°25' E 008°50'0 0.0
2014-Oct-25 17:04N 44°25' E 008°50'0 0.0
2014-Oct-25 15:28N 44°25' E 008°50'0 0.0
2014-Oct-25 11:25N 44°25' E 008°50'0 0.0
2014-Oct-25 03:25N 44°25' E 008°50'0 0.0
2014-Oct-25 02:19N 44°25' E 008°50'0 0.0
2014-Oct-25 01:07N 44°25' E 008°50'0 0.0
2014-Oct-25 00:31N 44°25' E 008°50'0 0.0
2014-Oct-24 23:31N 44°25' E 008°50'0 0.0
2014-Oct-24 19:13N 44°25' E 008°50'0 0.0
2014-Oct-24 18:25N 44°25' E 008°50'0 0.0
2014-Oct-24 17:22N 44°25' E 008°50'0 0.0
2014-Oct-24 16:19N 44°25' E 008°50'0 0.0
2014-Oct-24 15:28N 44°25' E 008°50'0 0.0
2014-Oct-24 14:10N 44°25' E 008°50'0 0.0
2014-Oct-24 13:10N 44°25' E 008°50'0 0.0
2014-Oct-24 12:28N 44°25' E 008°50'0 0.0
2014-Oct-24 11:10N 44°25' E 008°50'0 0.0
2014-Oct-24 09:22N 44°25' E 008°50'0 0.0
2014-Oct-24 08:28N 44°25' E 008°50'0 0.0
2014-Oct-24 07:19N 44°25' E 008°50'0 0.0
2014-Oct-24 06:32N 44°25' E 008°50'4 4.3
2014-Oct-24 05:33N 44°22' E 008°47'8 8.5
2014-Oct-24 04:33N 44°14' E 008°50'1 0.6
2014-Oct-24 03:31N 44°13' E 008°50'1 1.0
2014-Oct-24 02:31N 44°14' E 008°50'1 1.1
2014-Oct-24 01:31N 44°15' E 008°49'1 1.1
2014-Oct-24 00:31N 44°16' E 008°49'1 0.7
2014-Oct-23 23:31N 44°17' E 008°49'1 0.7
2014-Oct-23 22:31N 44°18' E 008°49'0 0.4
2014-Oct-23 21:31N 44°18' E 008°48'3 3.3
2014-Oct-23 20:33N 44°15' E 008°47'7 7.2
2014-Oct-23 19:33N 44°08' E 008°44'0 0.2
2014-Oct-23 18:32N 44°08' E 008°44'1 0.8
2014-Oct-23 17:32N 44°09' E 008°45'1 0.7
2014-Oct-23 16:32N 44°09' E 008°45'1 0.7
2014-Oct-23 15:29N 44°10' E 008°46'1 0.7
2014-Oct-23 14:32N 44°11' E 008°46'1 0.9
2014-Oct-23 13:32N 44°12' E 008°46'1 1.0
2014-Oct-23 12:32N 44°13' E 008°45'1 1.1
2014-Oct-23 11:32N 44°14' E 008°45'1 0.9
2014-Oct-23 10:29N 44°15' E 008°45'1 0.9
2014-Oct-23 09:29N 44°15' E 008°44'1 0.8
2014-Oct-23 08:32N 44°16' E 008°44'5 5.0
2014-Oct-23 07:33N 44°15' E 008°51'7 7.5
2014-Oct-23 06:34N 44°12' E 009°00'1 1.1
2014-Oct-23 05:31N 44°11' E 009°01'1 1.3
2014-Oct-23 04:31N 44°11' E 008°59'1 1.3
2014-Oct-23 03:31N 44°11' E 008°57'1 1.2
2014-Oct-23 02:28N 44°11' E 008°56'1 0.9
2014-Oct-23 01:31N 44°12' E 008°55'1 0.8
2014-Oct-23 00:31N 44°12' E 008°54'1 0.7
2014-Oct-22 23:28N 44°12' E 008°53'1 0.8
2014-Oct-22 22:31N 44°13' E 008°52'1 1.0
2014-Oct-22 21:31N 44°14' E 008°52'1 0.9
2014-Oct-22 20:31N 44°14' E 008°51'1 1.2
2014-Oct-22 19:31N 44°15' E 008°50'1 0.9
2014-Oct-22 18:33N 44°16' E 008°49'6 6.2
2014-Oct-22 17:33N 44°10' E 008°46'6 6.3
2014-Oct-22 16:33N 44°05' E 008°41'1 1.2
2014-Oct-22 15:31N 44°05' E 008°40'2 1.9
2014-Oct-22 14:31N 44°07' E 008°40'2 2.0
2014-Oct-22 13:31N 44°08' E 008°41'2 1.8
2014-Oct-22 12:19N 44°11' E 008°42'1 1.6
2014-Oct-22 11:31N 44°12' E 008°42'1 1.3
2014-Oct-22 10:31N 44°13' E 008°43'2 1.5
2014-Oct-22 09:31N 44°14' E 008°44'2 1.6
2014-Oct-22 08:34N 44°16' E 008°45'6 5.7
2014-Oct-22 07:33N 44°10' E 008°49'8 7.9
2014-Oct-22 06:33N 44°09' E 008°59'4 3.7
2014-Oct-22 05:32N 44°08' E 009°04'2 1.8
2014-Oct-22 04:32N 44°08' E 009°02'2 1.9
2014-Oct-22 03:29N 44°09' E 008°59'2 2.3
2014-Oct-22 02:32N 44°10' E 008°57'2 1.8
2014-Oct-22 01:32N 44°12' E 008°55'1 1.0
2014-Oct-22 00:32N 44°12' E 008°54'1 0.5
2014-Oct-21 23:32N 44°12' E 008°53'0 0.2
2014-Oct-21 22:32N 44°12' E 008°53'5 4.7
2014-Oct-21 21:33N 44°14' E 008°47'2 1.7
2014-Oct-21 20:28N 44°15' E 008°45'1 0.8
2014-Oct-21 19:31N 44°15' E 008°46'1 0.9
2014-Oct-21 18:28N 44°14' E 008°47'1 0.8
2014-Oct-21 17:31N 44°13' E 008°47'1 0.8
2014-Oct-21 16:31N 44°12' E 008°48'1 0.8
2014-Oct-21 15:31N 44°12' E 008°48'1 0.8
2014-Oct-21 14:33N 44°11' E 008°47'7 7.0
2014-Oct-21 13:33N 44°12' E 008°38'2 1.1
2014-Oct-21 11:32N 44°12' E 008°41'1 1.0
2014-Oct-21 10:32N 44°12' E 008°42'1 0.9
2014-Oct-21 09:20N 44°12' E 008°44'1 0.8
2014-Oct-21 08:32N 44°12' E 008°44'1 0.8
2014-Oct-21 07:26N 44°11' E 008°45'3 3.6
2014-Oct-21 06:33N 44°14' E 008°48'10 9.8
2014-Oct-21 05:33N 44°23' E 008°51'0 0.1
2014-Oct-21 04:30N 44°23' E 008°51'0 0.0
2014-Oct-21 03:33N 44°23' E 008°51'0 0.0
2014-Oct-21 02:33N 44°23' E 008°51'0 0.0
2014-Oct-21 01:33N 44°23' E 008°51'0 0.0
2014-Oct-21 00:33N 44°23' E 008°51'0 0.0
2014-Oct-20 23:33N 44°24' E 008°51'0 0.1
2014-Oct-20 22:33N 44°24' E 008°51'0 0.0
2014-Oct-20 21:30N 44°23' E 008°51'0 0.1
2014-Oct-20 20:33N 44°23' E 008°51'0 0.1
2014-Oct-20 19:33N 44°23' E 008°51'0 0.0
2014-Oct-20 18:33N 44°23' E 008°51'0 0.0
2014-Oct-20 17:33N 44°23' E 008°51'0 0.0
2014-Oct-20 16:33N 44°23' E 008°51'0 0.0
2014-Oct-20 15:33N 44°24' E 008°51'0 0.0
2014-Oct-20 14:33N 44°23' E 008°51'0 0.0
2014-Oct-20 13:33N 44°23' E 008°51'0 0.0
2014-Oct-20 12:33N 44°23' E 008°51'0 0.0
2014-Oct-20 11:33N 44°23' E 008°51'0 0.0
2014-Oct-20 10:33N 44°23' E 008°51'0 0.1
2014-Oct-20 09:33N 44°23' E 008°51'0 0.1
2014-Oct-20 08:33N 44°23' E 008°51'0 0.0
2014-Oct-20 07:30N 44°23' E 008°51'0 0.0
2014-Oct-20 06:33N 44°23' E 008°51'0 0.0
2014-Oct-20 05:33N 44°23' E 008°51'0 0.0
2014-Oct-20 04:33N 44°23' E 008°51'0 0.0
2014-Oct-20 03:33N 44°23' E 008°51'0 0.0
2014-Oct-20 02:33N 44°23' E 008°51'0 0.0
2014-Oct-20 01:33N 44°23' E 008°51'0 0.0
2014-Oct-20 00:33N 44°23' E 008°51'0 0.0
2014-Oct-19 23:33N 44°23' E 008°51'0 0.0
2014-Oct-19 22:33N 44°23' E 008°51'0 0.0
2014-Oct-19 21:33N 44°23' E 008°51'0 0.0
2014-Oct-19 20:33N 44°23' E 008°51'0 0.0
2014-Oct-19 19:33N 44°23' E 008°51'0 0.0
2014-Oct-19 18:24N 44°23' E 008°51'0 0.1
2014-Oct-19 17:33N 44°23' E 008°51'0 0.0
2014-Oct-19 16:30N 44°23' E 008°51'0 0.0
2014-Oct-19 15:33N 44°23' E 008°51'0 0.0
2014-Oct-19 14:30N 44°23' E 008°51'0 0.0
2014-Oct-19 13:27N 44°23' E 008°51'0 0.0
2014-Oct-19 12:33N 44°23' E 008°51'0 0.0
2014-Oct-19 11:30N 44°23' E 008°51'0 0.1
2014-Oct-19 10:27N 44°23' E 008°51'0 0.1
2014-Oct-19 09:33N 44°23' E 008°51'0 0.1
2014-Oct-19 08:33N 44°23' E 008°51'0 0.0
2014-Oct-19 07:33N 44°23' E 008°51'0 0.1
2014-Oct-19 06:33N 44°23' E 008°51'4 4.4
2014-Oct-19 05:33N 44°19' E 008°52'1010.1
2014-Oct-19 04:33N 44°09' E 008°56'0 0.1
2014-Oct-19 03:33N 44°09' E 008°56'0 0.2
2014-Oct-19 02:33N 44°09' E 008°56'0 0.2
2014-Oct-19 01:33N 44°09' E 008°57'0 0.1
2014-Oct-19 00:33N 44°09' E 008°57'0 0.1
2014-Oct-18 23:33N 44°09' E 008°57'0 0.2
2014-Oct-18 22:33N 44°09' E 008°57'0 0.2
2014-Oct-18 21:33N 44°09' E 008°56'0 0.3
2014-Oct-18 20:30N 44°09' E 008°56'0 0.4
2014-Oct-18 19:33N 44°09' E 008°56'0 0.3
2014-Oct-18 18:30N 44°08' E 008°56'2 2.1
2014-Oct-18 17:33N 44°10' E 008°54'10 9.9
2014-Oct-18 16:33N 44°19' E 008°50'1010.4
2014-Oct-18 15:33N 44°11' E 008°41'1312.7
2014-Oct-18 14:33N 44°01' E 008°30'1312.6
2014-Oct-18 13:33N 43°51' E 008°19'1312.3
2014-Oct-18 12:30N 43°42' E 008°06'1212.3
2014-Oct-18 11:32N 43°35' E 007°53'2912.6
2014-Oct-18 09:14N 43°17' E 007°21'912.5
2014-Oct-18 08:33N 43°12' E 007°12'1212.4
2014-Oct-18 07:33N 43°04' E 006°59'1212.3
2014-Oct-18 06:33N 42°57' E 006°45'  

Dump ship's entire track history